sensor_id;sensor_type;location;lat;lon;timestamp;P1;durP1;ratioP1;P2;durP2;ratioP2
4460;SDS011;2243;48.812;9.232;2023-08-21T00:01:20;8.90;;;8.13;;
4460;SDS011;2243;48.812;9.232;2023-08-21T00:03:52;10.50;;;8.47;;
4460;SDS011;2243;48.812;9.232;2023-08-21T00:06:23;12.47;;;8.67;;
4460;SDS011;2243;48.812;9.232;2023-08-21T00:08:54;14.27;;;8.67;;
4460;SDS011;2243;48.812;9.232;2023-08-21T00:11:25;11.07;;;8.13;;
4460;SDS011;2243;48.812;9.232;2023-08-21T00:13:56;9.70;;;8.50;;
4460;SDS011;2243;48.812;9.232;2023-08-21T00:16:27;10.33;;;9.33;;
4460;SDS011;2243;48.812;9.232;2023-08-21T00:18:59;11.27;;;8.83;;
4460;SDS011;2243;48.812;9.232;2023-08-21T00:21:30;10.53;;;8.53;;
4460;SDS011;2243;48.812;9.232;2023-08-21T00:24:01;9.70;;;8.70;;
4460;SDS011;2243;48.812;9.232;2023-08-21T00:26:31;10.50;;;9.50;;
4460;SDS011;2243;48.812;9.232;2023-08-21T00:29:02;8.80;;;8.00;;
4460;SDS011;2243;48.812;9.232;2023-08-21T00:31:34;9.97;;;8.67;;
4460;SDS011;2243;48.812;9.232;2023-08-21T00:34:04;9.20;;;8.23;;
4460;SDS011;2243;48.812;9.232;2023-08-21T00:36:36;13.10;;;8.33;;
4460;SDS011;2243;48.812;9.232;2023-08-21T00:39:07;10.37;;;9.37;;
4460;SDS011;2243;48.812;9.232;2023-08-21T00:41:38;10.00;;;8.27;;
4460;SDS011;2243;48.812;9.232;2023-08-21T00:44:09;9.27;;;8.43;;
4460;SDS011;2243;48.812;9.232;2023-08-21T00:46:40;9.70;;;8.70;;
4460;SDS011;2243;48.812;9.232;2023-08-21T00:49:11;10.60;;;9.20;;
4460;SDS011;2243;48.812;9.232;2023-08-21T00:51:42;14.03;;;8.30;;
4460;SDS011;2243;48.812;9.232;2023-08-21T00:54:14;11.20;;;8.90;;
4460;SDS011;2243;48.812;9.232;2023-08-21T00:56:46;9.20;;;8.30;;
4460;SDS011;2243;48.812;9.232;2023-08-21T00:59:21;10.20;;;9.20;;
4460;SDS011;2243;48.812;9.232;2023-08-21T01:01:52;12.10;;;8.43;;
4460;SDS011;2243;48.812;9.232;2023-08-21T01:04:23;9.37;;;8.40;;
4460;SDS011;2243;48.812;9.232;2023-08-21T01:06:54;14.77;;;8.80;;
4460;SDS011;2243;48.812;9.232;2023-08-21T01:09:36;9.90;;;9.10;;
4460;SDS011;2243;48.812;9.232;2023-08-21T01:15:06;14.30;;;8.87;;
4460;SDS011;2243;48.812;9.232;2023-08-21T01:17:37;13.83;;;9.00;;
4460;SDS011;2243;48.812;9.232;2023-08-21T01:20:10;10.30;;;8.73;;
4460;SDS011;2243;48.812;9.232;2023-08-21T01:22:41;8.93;;;8.13;;
4460;SDS011;2243;48.812;9.232;2023-08-21T01:25:16;10.33;;;9.33;;
4460;SDS011;2243;48.812;9.232;2023-08-21T01:27:48;11.00;;;9.73;;
4460;SDS011;2243;48.812;9.232;2023-08-21T01:30:20;9.63;;;8.63;;
4460;SDS011;2243;48.812;9.232;2023-08-21T01:32:57;10.73;;;9.63;;
4460;SDS011;2243;48.812;9.232;2023-08-21T01:35:33;10.30;;;8.77;;
4460;SDS011;2243;48.812;9.232;2023-08-21T01:38:06;10.80;;;9.70;;
4460;SDS011;2243;48.812;9.232;2023-08-21T01:40:37;10.07;;;9.07;;
4460;SDS011;2243;48.812;9.232;2023-08-21T01:43:08;14.67;;;8.90;;
4460;SDS011;2243;48.812;9.232;2023-08-21T01:45:39;11.27;;;9.13;;
4460;SDS011;2243;48.812;9.232;2023-08-21T01:48:10;9.73;;;8.80;;
4460;SDS011;2243;48.812;9.232;2023-08-21T01:50:41;10.23;;;8.83;;
4460;SDS011;2243;48.812;9.232;2023-08-21T01:53:12;11.17;;;10.07;;
4460;SDS011;2243;48.812;9.232;2023-08-21T01:55:43;11.70;;;10.00;;
4460;SDS011;2243;48.812;9.232;2023-08-21T01:58:14;10.40;;;9.27;;
4460;SDS011;2243;48.812;9.232;2023-08-21T02:00:45;9.90;;;9.00;;
4460;SDS011;2243;48.812;9.232;2023-08-21T02:03:17;9.87;;;8.93;;
4460;SDS011;2243;48.812;9.232;2023-08-21T02:05:48;10.10;;;9.20;;
4460;SDS011;2243;48.812;9.232;2023-08-21T02:08:19;11.20;;;9.33;;
4460;SDS011;2243;48.812;9.232;2023-08-21T02:10:51;10.80;;;9.70;;
4460;SDS011;2243;48.812;9.232;2023-08-21T02:13:23;10.07;;;8.60;;
4460;SDS011;2243;48.812;9.232;2023-08-21T02:15:54;11.57;;;9.70;;
4460;SDS011;2243;48.812;9.232;2023-08-21T02:18:25;10.53;;;9.23;;
4460;SDS011;2243;48.812;9.232;2023-08-21T02:20:56;10.27;;;8.73;;
4460;SDS011;2243;48.812;9.232;2023-08-21T02:23:27;9.60;;;8.50;;
4460;SDS011;2243;48.812;9.232;2023-08-21T02:25:59;10.37;;;9.27;;
4460;SDS011;2243;48.812;9.232;2023-08-21T02:28:30;11.47;;;9.80;;
4460;SDS011;2243;48.812;9.232;2023-08-21T02:31:01;9.43;;;8.33;;
4460;SDS011;2243;48.812;9.232;2023-08-21T02:33:32;10.07;;;8.93;;
4460;SDS011;2243;48.812;9.232;2023-08-21T02:36:03;11.30;;;9.10;;
4460;SDS011;2243;48.812;9.232;2023-08-21T02:38:35;19.13;;;9.40;;
4460;SDS011;2243;48.812;9.232;2023-08-21T02:41:06;10.83;;;9.83;;
4460;SDS011;2243;48.812;9.232;2023-08-21T02:43:37;15.47;;;10.73;;
4460;SDS011;2243;48.812;9.232;2023-08-21T02:46:08;10.10;;;8.87;;
4460;SDS011;2243;48.812;9.232;2023-08-21T02:48:39;10.00;;;9.00;;
4460;SDS011;2243;48.812;9.232;2023-08-21T02:51:10;14.77;;;9.03;;
4460;SDS011;2243;48.812;9.232;2023-08-21T02:53:41;10.87;;;9.60;;
4460;SDS011;2243;48.812;9.232;2023-08-21T02:56:12;14.30;;;10.90;;
4460;SDS011;2243;48.812;9.232;2023-08-21T02:58:43;12.87;;;10.20;;
4460;SDS011;2243;48.812;9.232;2023-08-21T03:01:14;13.67;;;11.20;;
4460;SDS011;2243;48.812;9.232;2023-08-21T03:03:45;14.50;;;9.63;;
4460;SDS011;2243;48.812;9.232;2023-08-21T03:06:16;10.60;;;9.50;;
4460;SDS011;2243;48.812;9.232;2023-08-21T03:08:47;12.97;;;10.17;;
4460;SDS011;2243;48.812;9.232;2023-08-21T03:11:18;10.63;;;9.10;;
4460;SDS011;2243;48.812;9.232;2023-08-21T03:13:49;14.77;;;10.07;;
4460;SDS011;2243;48.812;9.232;2023-08-21T03:16:20;12.60;;;10.20;;
4460;SDS011;2243;48.812;9.232;2023-08-21T03:18:55;9.97;;;9.07;;
4460;SDS011;2243;48.812;9.232;2023-08-21T03:21:28;10.57;;;9.57;;
4460;SDS011;2243;48.812;9.232;2023-08-21T03:23:59;15.63;;;10.70;;
4460;SDS011;2243;48.812;9.232;2023-08-21T03:26:34;10.73;;;9.30;;
4460;SDS011;2243;48.812;9.232;2023-08-21T03:29:05;10.10;;;9.07;;
4460;SDS011;2243;48.812;9.232;2023-08-21T03:31:36;10.60;;;9.40;;
4460;SDS011;2243;48.812;9.232;2023-08-21T03:34:07;12.90;;;10.43;;
4460;SDS011;2243;48.812;9.232;2023-08-21T03:36:38;10.07;;;9.17;;
4460;SDS011;2243;48.812;9.232;2023-08-21T03:39:09;10.57;;;9.57;;
4460;SDS011;2243;48.812;9.232;2023-08-21T03:41:40;11.53;;;9.43;;
4460;SDS011;2243;48.812;9.232;2023-08-21T03:44:11;10.47;;;9.53;;
4460;SDS011;2243;48.812;9.232;2023-08-21T03:46:42;12.17;;;10.17;;
4460;SDS011;2243;48.812;9.232;2023-08-21T03:49:13;10.87;;;9.70;;
4460;SDS011;2243;48.812;9.232;2023-08-21T03:51:44;11.83;;;9.43;;
4460;SDS011;2243;48.812;9.232;2023-08-21T03:54:15;11.10;;;9.30;;
4460;SDS011;2243;48.812;9.232;2023-08-21T03:56:46;8.87;;;8.07;;
4460;SDS011;2243;48.812;9.232;2023-08-21T03:59:17;10.20;;;9.20;;
4460;SDS011;2243;48.812;9.232;2023-08-21T04:01:48;10.53;;;8.90;;
4460;SDS011;2243;48.812;9.232;2023-08-21T04:04:19;11.00;;;9.93;;
4460;SDS011;2243;48.812;9.232;2023-08-21T04:06:50;9.93;;;8.93;;
4460;SDS011;2243;48.812;9.232;2023-08-21T04:09:21;10.83;;;9.73;;
4460;SDS011;2243;48.812;9.232;2023-08-21T04:11:52;15.03;;;9.27;;
4460;SDS011;2243;48.812;9.232;2023-08-21T04:14:23;14.43;;;9.87;;
4460;SDS011;2243;48.812;9.232;2023-08-21T04:16:54;11.87;;;9.83;;
4460;SDS011;2243;48.812;9.232;2023-08-21T04:19:25;12.27;;;10.10;;
4460;SDS011;2243;48.812;9.232;2023-08-21T04:22:00;11.77;;;8.70;;
4460;SDS011;2243;48.812;9.232;2023-08-21T04:24:31;9.93;;;8.93;;
4460;SDS011;2243;48.812;9.232;2023-08-21T04:27:02;11.03;;;9.77;;
4460;SDS011;2243;48.812;9.232;2023-08-21T04:29:34;11.47;;;10.30;;
4460;SDS011;2243;48.812;9.232;2023-08-21T04:32:06;11.90;;;9.50;;
4460;SDS011;2243;48.812;9.232;2023-08-21T04:34:37;10.07;;;9.13;;
4460;SDS011;2243;48.812;9.232;2023-08-21T04:37:08;13.30;;;9.20;;
4460;SDS011;2243;48.812;9.232;2023-08-21T04:39:39;11.80;;;9.73;;
4460;SDS011;2243;48.812;9.232;2023-08-21T04:42:10;13.63;;;11.20;;
4460;SDS011;2243;48.812;9.232;2023-08-21T04:44:41;14.00;;;9.90;;
4460;SDS011;2243;48.812;9.232;2023-08-21T04:47:25;14.03;;;10.77;;
4460;SDS011;2243;48.812;9.232;2023-08-21T04:49:57;11.40;;;9.80;;
4460;SDS011;2243;48.812;9.232;2023-08-21T04:52:28;11.67;;;10.40;;
4460;SDS011;2243;48.812;9.232;2023-08-21T04:55:00;12.80;;;11.03;;
4460;SDS011;2243;48.812;9.232;2023-08-21T04:57:30;12.70;;;10.07;;
4460;SDS011;2243;48.812;9.232;2023-08-21T05:00:01;11.73;;;10.60;;
4460;SDS011;2243;48.812;9.232;2023-08-21T05:02:34;16.50;;;10.23;;
4460;SDS011;2243;48.812;9.232;2023-08-21T05:05:06;14.47;;;11.60;;
4460;SDS011;2243;48.812;9.232;2023-08-21T05:07:37;16.33;;;12.30;;
4460;SDS011;2243;48.812;9.232;2023-08-21T05:10:08;13.20;;;11.30;;
4460;SDS011;2243;48.812;9.232;2023-08-21T05:12:39;17.77;;;11.60;;
4460;SDS011;2243;48.812;9.232;2023-08-21T05:15:10;14.07;;;11.20;;
4460;SDS011;2243;48.812;9.232;2023-08-21T05:17:41;16.20;;;11.70;;
4460;SDS011;2243;48.812;9.232;2023-08-21T05:20:12;18.23;;;11.73;;
4460;SDS011;2243;48.812;9.232;2023-08-21T05:22:45;14.00;;;11.50;;
4460;SDS011;2243;48.812;9.232;2023-08-21T05:25:16;11.73;;;10.60;;
4460;SDS011;2243;48.812;9.232;2023-08-21T05:27:47;11.33;;;10.20;;
4460;SDS011;2243;48.812;9.232;2023-08-21T05:30:18;13.03;;;11.63;;
4460;SDS011;2243;48.812;9.232;2023-08-21T05:32:49;12.10;;;10.80;;
4460;SDS011;2243;48.812;9.232;2023-08-21T05:35:20;13.00;;;10.97;;
4460;SDS011;2243;48.812;9.232;2023-08-21T05:37:51;15.50;;;12.30;;
4460;SDS011;2243;48.812;9.232;2023-08-21T05:40:23;15.90;;;11.10;;
4460;SDS011;2243;48.812;9.232;2023-08-21T05:42:54;13.00;;;11.70;;
4460;SDS011;2243;48.812;9.232;2023-08-21T05:45:26;14.00;;;10.50;;
4460;SDS011;2243;48.812;9.232;2023-08-21T05:47:57;20.17;;;13.10;;
4460;SDS011;2243;48.812;9.232;2023-08-21T05:50:28;13.43;;;11.20;;
4460;SDS011;2243;48.812;9.232;2023-08-21T05:52:59;19.90;;;12.50;;
4460;SDS011;2243;48.812;9.232;2023-08-21T05:55:32;16.87;;;11.43;;
4460;SDS011;2243;48.812;9.232;2023-08-21T05:58:03;16.30;;;12.93;;
4460;SDS011;2243;48.812;9.232;2023-08-21T06:00:34;14.70;;;12.57;;
4460;SDS011;2243;48.812;9.232;2023-08-21T06:03:05;15.23;;;12.10;;
4460;SDS011;2243;48.812;9.232;2023-08-21T06:05:36;17.77;;;12.57;;
4460;SDS011;2243;48.812;9.232;2023-08-21T06:08:07;16.90;;;13.30;;
4460;SDS011;2243;48.812;9.232;2023-08-21T06:10:39;20.83;;;13.50;;
4460;SDS011;2243;48.812;9.232;2023-08-21T06:13:10;15.50;;;12.93;;
4460;SDS011;2243;48.812;9.232;2023-08-21T06:15:43;17.07;;;12.97;;
4460;SDS011;2243;48.812;9.232;2023-08-21T06:18:15;15.87;;;13.10;;
4460;SDS011;2243;48.812;9.232;2023-08-21T06:20:46;17.27;;;12.23;;
4460;SDS011;2243;48.812;9.232;2023-08-21T06:23:23;15.63;;;13.20;;
4460;SDS011;2243;48.812;9.232;2023-08-21T06:25:54;18.03;;;12.37;;
4460;SDS011;2243;48.812;9.232;2023-08-21T06:28:25;19.20;;;12.63;;
4460;SDS011;2243;48.812;9.232;2023-08-21T06:30:56;21.70;;;11.73;;
4460;SDS011;2243;48.812;9.232;2023-08-21T06:33:33;22.13;;;12.80;;
4460;SDS011;2243;48.812;9.232;2023-08-21T06:36:05;18.90;;;12.30;;
4460;SDS011;2243;48.812;9.232;2023-08-21T06:38:36;19.37;;;13.80;;
4460;SDS011;2243;48.812;9.232;2023-08-21T06:41:07;13.43;;;11.30;;
4460;SDS011;2243;48.812;9.232;2023-08-21T06:43:42;22.00;;;13.07;;
4460;SDS011;2243;48.812;9.232;2023-08-21T06:46:14;22.07;;;12.20;;
4460;SDS011;2243;48.812;9.232;2023-08-21T06:48:46;16.50;;;11.63;;
4460;SDS011;2243;48.812;9.232;2023-08-21T06:51:17;16.30;;;11.20;;
4460;SDS011;2243;48.812;9.232;2023-08-21T06:53:48;13.87;;;11.63;;
4460;SDS011;2243;48.812;9.232;2023-08-21T06:56:19;14.67;;;11.20;;
4460;SDS011;2243;48.812;9.232;2023-08-21T06:58:50;12.80;;;11.00;;
4460;SDS011;2243;48.812;9.232;2023-08-21T07:01:21;13.17;;;10.87;;
4460;SDS011;2243;48.812;9.232;2023-08-21T07:03:52;12.50;;;11.20;;
4460;SDS011;2243;48.812;9.232;2023-08-21T07:06:23;13.43;;;10.47;;
4460;SDS011;2243;48.812;9.232;2023-08-21T07:08:54;19.70;;;11.10;;
4460;SDS011;2243;48.812;9.232;2023-08-21T07:11:25;15.40;;;11.57;;
4460;SDS011;2243;48.812;9.232;2023-08-21T07:13:56;18.90;;;11.33;;
4460;SDS011;2243;48.812;9.232;2023-08-21T07:16:27;20.13;;;12.93;;
4460;SDS011;2243;48.812;9.232;2023-08-21T07:18:59;16.97;;;10.90;;
4460;SDS011;2243;48.812;9.232;2023-08-21T07:21:30;10.57;;;9.47;;
4460;SDS011;2243;48.812;9.232;2023-08-21T07:24:03;16.50;;;10.90;;
4460;SDS011;2243;48.812;9.232;2023-08-21T07:26:35;14.40;;;10.43;;
4460;SDS011;2243;48.812;9.232;2023-08-21T07:29:06;12.13;;;10.90;;
4460;SDS011;2243;48.812;9.232;2023-08-21T07:31:38;19.67;;;11.90;;
4460;SDS011;2243;48.812;9.232;2023-08-21T07:34:09;18.73;;;10.47;;
4460;SDS011;2243;48.812;9.232;2023-08-21T07:36:40;13.57;;;11.27;;
4460;SDS011;2243;48.812;9.232;2023-08-21T07:39:11;14.20;;;10.50;;
4460;SDS011;2243;48.812;9.232;2023-08-21T07:41:42;12.70;;;9.37;;
4460;SDS011;2243;48.812;9.232;2023-08-21T07:44:13;14.07;;;9.37;;
4460;SDS011;2243;48.812;9.232;2023-08-21T07:46:44;17.80;;;8.90;;
4460;SDS011;2243;48.812;9.232;2023-08-21T07:49:15;12.83;;;8.57;;
4460;SDS011;2243;48.812;9.232;2023-08-21T07:51:46;10.20;;;9.20;;
4460;SDS011;2243;48.812;9.232;2023-08-21T07:54:17;9.50;;;8.50;;
4460;SDS011;2243;48.812;9.232;2023-08-21T07:56:48;10.07;;;8.30;;
4460;SDS011;2243;48.812;9.232;2023-08-21T07:59:19;9.23;;;8.03;;
4460;SDS011;2243;48.812;9.232;2023-08-21T08:01:50;9.87;;;8.53;;
4460;SDS011;2243;48.812;9.232;2023-08-21T08:04:21;8.80;;;8.00;;
4460;SDS011;2243;48.812;9.232;2023-08-21T08:06:52;10.50;;;9.10;;
4460;SDS011;2243;48.812;9.232;2023-08-21T08:09:23;11.87;;;8.20;;
4460;SDS011;2243;48.812;9.232;2023-08-21T08:11:55;9.73;;;8.53;;
4460;SDS011;2243;48.812;9.232;2023-08-21T08:14:26;17.63;;;9.57;;
4460;SDS011;2243;48.812;9.232;2023-08-21T08:16:57;9.37;;;8.37;;
4460;SDS011;2243;48.812;9.232;2023-08-21T08:19:28;8.90;;;8.00;;
4460;SDS011;2243;48.812;9.232;2023-08-21T08:21:59;9.10;;;8.10;;
4460;SDS011;2243;48.812;9.232;2023-08-21T08:24:30;10.83;;;8.20;;
4460;SDS011;2243;48.812;9.232;2023-08-21T08:27:01;9.40;;;8.43;;
4460;SDS011;2243;48.812;9.232;2023-08-21T08:29:32;15.87;;;8.57;;
4460;SDS011;2243;48.812;9.232;2023-08-21T08:32:03;8.90;;;8.10;;
4460;SDS011;2243;48.812;9.232;2023-08-21T08:34:35;9.00;;;8.03;;
4460;SDS011;2243;48.812;9.232;2023-08-21T08:37:06;10.07;;;8.87;;
4460;SDS011;2243;48.812;9.232;2023-08-21T08:39:37;9.40;;;8.07;;
4460;SDS011;2243;48.812;9.232;2023-08-21T08:42:08;10.33;;;8.80;;
4460;SDS011;2243;48.812;9.232;2023-08-21T08:44:41;11.03;;;8.73;;
4460;SDS011;2243;48.812;9.232;2023-08-21T08:47:14;8.50;;;7.70;;
4460;SDS011;2243;48.812;9.232;2023-08-21T08:49:48;12.50;;;8.87;;
4460;SDS011;2243;48.812;9.232;2023-08-21T08:52:20;10.50;;;8.10;;
4460;SDS011;2243;48.812;9.232;2023-08-21T08:54:54;13.20;;;10.40;;
4460;SDS011;2243;48.812;9.232;2023-08-21T08:57:28;8.87;;;8.00;;
4460;SDS011;2243;48.812;9.232;2023-08-21T08:59:59;10.30;;;8.90;;
4460;SDS011;2243;48.812;9.232;2023-08-21T09:02:31;9.80;;;8.87;;
4460;SDS011;2243;48.812;9.232;2023-08-21T09:05:02;8.37;;;7.50;;
4460;SDS011;2243;48.812;9.232;2023-08-21T09:07:34;8.40;;;7.70;;
4460;SDS011;2243;48.812;9.232;2023-08-21T09:10:12;7.93;;;7.20;;
4460;SDS011;2243;48.812;9.232;2023-08-21T09:12:45;8.50;;;7.77;;
4460;SDS011;2243;48.812;9.232;2023-08-21T09:15:17;9.47;;;8.40;;
4460;SDS011;2243;48.812;9.232;2023-08-21T09:17:52;8.53;;;7.83;;
4460;SDS011;2243;48.812;9.232;2023-08-21T09:20:24;8.73;;;7.83;;
4460;SDS011;2243;48.812;9.232;2023-08-21T09:22:55;9.27;;;8.30;;
4460;SDS011;2243;48.812;9.232;2023-08-21T09:25:26;9.80;;;8.90;;
4460;SDS011;2243;48.812;9.232;2023-08-21T09:27:58;11.43;;;8.70;;
4460;SDS011;2243;48.812;9.232;2023-08-21T09:30:29;9.93;;;8.57;;
4460;SDS011;2243;48.812;9.232;2023-08-21T09:33:00;8.87;;;7.90;;
4460;SDS011;2243;48.812;9.232;2023-08-21T09:35:33;12.20;;;8.00;;
4460;SDS011;2243;48.812;9.232;2023-08-21T09:38:04;8.63;;;7.77;;
4460;SDS011;2243;48.812;9.232;2023-08-21T09:40:40;8.63;;;7.67;;
4460;SDS011;2243;48.812;9.232;2023-08-21T09:43:12;9.50;;;8.43;;
4460;SDS011;2243;48.812;9.232;2023-08-21T09:45:47;9.47;;;8.17;;
4460;SDS011;2243;48.812;9.232;2023-08-21T09:48:27;8.93;;;8.03;;
4460;SDS011;2243;48.812;9.232;2023-08-21T09:50:58;12.43;;;7.87;;
4460;SDS011;2243;48.812;9.232;2023-08-21T09:53:32;9.10;;;7.03;;
4460;SDS011;2243;48.812;9.232;2023-08-21T09:56:03;8.37;;;7.53;;
4460;SDS011;2243;48.812;9.232;2023-08-21T09:58:38;11.63;;;6.50;;
4460;SDS011;2243;48.812;9.232;2023-08-21T10:01:09;6.03;;;5.43;;
4460;SDS011;2243;48.812;9.232;2023-08-21T10:03:44;6.57;;;6.07;;
4460;SDS011;2243;48.812;9.232;2023-08-21T10:06:18;6.60;;;6.00;;
4460;SDS011;2243;48.812;9.232;2023-08-21T10:08:53;6.20;;;5.70;;
4460;SDS011;2243;48.812;9.232;2023-08-21T10:11:25;6.90;;;6.40;;
4460;SDS011;2243;48.812;9.232;2023-08-21T10:13:58;6.97;;;6.10;;
4460;SDS011;2243;48.812;9.232;2023-08-21T10:16:29;7.03;;;5.60;;
4460;SDS011;2243;48.812;9.232;2023-08-21T10:19:03;7.80;;;5.73;;
4460;SDS011;2243;48.812;9.232;2023-08-21T10:21:39;6.03;;;5.57;;
4460;SDS011;2243;48.812;9.232;2023-08-21T10:24:10;5.73;;;5.30;;
4460;SDS011;2243;48.812;9.232;2023-08-21T10:26:41;6.93;;;6.37;;
4460;SDS011;2243;48.812;9.232;2023-08-21T10:29:16;7.27;;;6.00;;
4460;SDS011;2243;48.812;9.232;2023-08-21T10:31:47;7.63;;;6.10;;
4460;SDS011;2243;48.812;9.232;2023-08-21T10:34:33;8.20;;;5.40;;
4460;SDS011;2243;48.812;9.232;2023-08-21T10:37:08;6.63;;;5.93;;
4460;SDS011;2243;48.812;9.232;2023-08-21T10:39:55;8.17;;;5.97;;
4460;SDS011;2243;48.812;9.232;2023-08-21T10:42:37;6.40;;;5.77;;
4460;SDS011;2243;48.812;9.232;2023-08-21T10:45:11;7.83;;;5.73;;
4460;SDS011;2243;48.812;9.232;2023-08-21T10:47:43;5.97;;;5.47;;
4460;SDS011;2243;48.812;9.232;2023-08-21T10:50:17;6.07;;;5.57;;
4460;SDS011;2243;48.812;9.232;2023-08-21T10:52:48;6.00;;;5.47;;
4460;SDS011;2243;48.812;9.232;2023-08-21T10:55:23;5.40;;;5.00;;
4460;SDS011;2243;48.812;9.232;2023-08-21T10:57:54;9.13;;;5.70;;
4460;SDS011;2243;48.812;9.232;2023-08-21T11:00:25;7.90;;;5.47;;
4460;SDS011;2243;48.812;9.232;2023-08-21T11:02:56;6.90;;;6.20;;
4460;SDS011;2243;48.812;9.232;2023-08-21T11:05:27;6.10;;;5.50;;
4460;SDS011;2243;48.812;9.232;2023-08-21T11:07:58;6.30;;;5.70;;
4460;SDS011;2243;48.812;9.232;2023-08-21T11:10:30;5.73;;;5.23;;
4460;SDS011;2243;48.812;9.232;2023-08-21T11:13:06;6.20;;;5.60;;
4460;SDS011;2243;48.812;9.232;2023-08-21T11:15:37;5.00;;;4.63;;
4460;SDS011;2243;48.812;9.232;2023-08-21T11:18:09;7.53;;;4.80;;
4460;SDS011;2243;48.812;9.232;2023-08-21T11:20:40;5.47;;;4.75;;
4460;SDS011;2243;48.812;9.232;2023-08-21T11:23:13;5.70;;;5.20;;
4460;SDS011;2243;48.812;9.232;2023-08-21T11:25:44;8.30;;;5.28;;
4460;SDS011;2243;48.812;9.232;2023-08-21T11:28:16;8.68;;;5.65;;
4460;SDS011;2243;48.812;9.232;2023-08-21T11:30:47;5.65;;;5.18;;
4460;SDS011;2243;48.812;9.232;2023-08-21T11:33:18;9.88;;;5.10;;
4460;SDS011;2243;48.812;9.232;2023-08-21T11:35:49;6.50;;;5.57;;
4460;SDS011;2243;48.812;9.232;2023-08-21T11:38:22;5.40;;;4.97;;
4460;SDS011;2243;48.812;9.232;2023-08-21T11:40:56;4.90;;;4.60;;
4460;SDS011;2243;48.812;9.232;2023-08-21T11:43:39;5.70;;;5.20;;
4460;SDS011;2243;48.812;9.232;2023-08-21T11:46:13;5.93;;;5.43;;
4460;SDS011;2243;48.812;9.232;2023-08-21T11:48:44;6.00;;;4.60;;
4460;SDS011;2243;48.812;9.232;2023-08-21T11:51:15;5.53;;;5.13;;
4460;SDS011;2243;48.812;9.232;2023-08-21T11:53:47;9.07;;;5.55;;
4460;SDS011;2243;48.812;9.232;2023-08-21T11:56:21;10.18;;;5.68;;
4460;SDS011;2243;48.812;9.232;2023-08-21T11:58:58;6.15;;;5.38;;
4460;SDS011;2243;48.812;9.232;2023-08-21T12:01:32;5.53;;;5.13;;
4460;SDS011;2243;48.812;9.232;2023-08-21T12:04:13;9.15;;;5.57;;
4460;SDS011;2243;48.812;9.232;2023-08-21T12:06:46;5.47;;;4.97;;
4460;SDS011;2243;48.812;9.232;2023-08-21T12:09:17;7.00;;;5.90;;
4460;SDS011;2243;48.812;9.232;2023-08-21T12:11:49;6.63;;;5.95;;
4460;SDS011;2243;48.812;9.232;2023-08-21T12:14:20;6.95;;;5.13;;
4460;SDS011;2243;48.812;9.232;2023-08-21T12:16:51;6.90;;;6.20;;
4460;SDS011;2243;48.812;9.232;2023-08-21T12:19:22;6.47;;;5.88;;
4460;SDS011;2243;48.812;9.232;2023-08-21T12:21:53;6.22;;;5.72;;
4460;SDS011;2243;48.812;9.232;2023-08-21T12:24:24;6.20;;;5.53;;
4460;SDS011;2243;48.812;9.232;2023-08-21T12:26:55;5.53;;;5.18;;
4460;SDS011;2243;48.812;9.232;2023-08-21T12:29:27;6.03;;;5.60;;
4460;SDS011;2243;48.812;9.232;2023-08-21T12:31:58;11.02;;;5.40;;
4460;SDS011;2243;48.812;9.232;2023-08-21T12:34:29;6.88;;;6.18;;
4460;SDS011;2243;48.812;9.232;2023-08-21T12:37:00;6.28;;;5.25;;
4460;SDS011;2243;48.812;9.232;2023-08-21T12:39:31;5.70;;;5.20;;
4460;SDS011;2243;48.812;9.232;2023-08-21T12:42:02;5.57;;;5.07;;
4460;SDS011;2243;48.812;9.232;2023-08-21T12:44:33;6.32;;;5.70;;
4460;SDS011;2243;48.812;9.232;2023-08-21T12:47:05;5.17;;;4.67;;
4460;SDS011;2243;48.812;9.232;2023-08-21T12:49:36;7.72;;;5.20;;
4460;SDS011;2243;48.812;9.232;2023-08-21T12:52:07;5.60;;;5.07;;
4460;SDS011;2243;48.812;9.232;2023-08-21T12:54:40;6.22;;;5.28;;
4460;SDS011;2243;48.812;9.232;2023-08-21T12:57:11;6.20;;;5.70;;
4460;SDS011;2243;48.812;9.232;2023-08-21T12:59:42;5.68;;;5.20;;
4460;SDS011;2243;48.812;9.232;2023-08-21T13:02:13;6.43;;;5.47;;
4460;SDS011;2243;48.812;9.232;2023-08-21T13:04:44;6.90;;;4.88;;
4460;SDS011;2243;48.812;9.232;2023-08-21T13:07:15;5.05;;;4.53;;
4460;SDS011;2243;48.812;9.232;2023-08-21T13:09:46;6.07;;;5.55;;
4460;SDS011;2243;48.812;9.232;2023-08-21T13:12:17;5.72;;;5.22;;
4460;SDS011;2243;48.812;9.232;2023-08-21T13:14:48;5.32;;;4.88;;
4460;SDS011;2243;48.812;9.232;2023-08-21T13:17:19;5.50;;;4.80;;
4460;SDS011;2243;48.812;9.232;2023-08-21T13:19:50;7.82;;;5.15;;
4460;SDS011;2243;48.812;9.232;2023-08-21T13:22:21;5.45;;;5.05;;
4460;SDS011;2243;48.812;9.232;2023-08-21T13:24:52;9.18;;;5.53;;
4460;SDS011;2243;48.812;9.232;2023-08-21T13:27:23;15.85;;;5.55;;
4460;SDS011;2243;48.812;9.232;2023-08-21T13:29:54;5.50;;;4.97;;
4460;SDS011;2243;48.812;9.232;2023-08-21T13:32:25;5.68;;;5.32;;
4460;SDS011;2243;48.812;9.232;2023-08-21T13:34:56;5.47;;;4.97;;
4460;SDS011;2243;48.812;9.232;2023-08-21T13:37:27;6.18;;;5.68;;
4460;SDS011;2243;48.812;9.232;2023-08-21T13:39:58;6.63;;;5.72;;
4460;SDS011;2243;48.812;9.232;2023-08-21T13:42:30;5.53;;;5.03;;
4460;SDS011;2243;48.812;9.232;2023-08-21T13:45:05;6.30;;;5.45;;
4460;SDS011;2243;48.812;9.232;2023-08-21T13:47:42;10.20;;;5.60;;
4460;SDS011;2243;48.812;9.232;2023-08-21T13:50:23;5.95;;;4.65;;
4460;SDS011;2243;48.812;9.232;2023-08-21T13:52:54;7.30;;;5.50;;
4460;SDS011;2243;48.812;9.232;2023-08-21T13:55:26;7.25;;;5.88;;
4460;SDS011;2243;48.812;9.232;2023-08-21T13:57:58;7.57;;;5.75;;
4460;SDS011;2243;48.812;9.232;2023-08-21T14:00:29;11.80;;;5.38;;
4460;SDS011;2243;48.812;9.232;2023-08-21T14:03:00;5.55;;;5.05;;
4460;SDS011;2243;48.812;9.232;2023-08-21T14:05:31;9.55;;;5.25;;
4460;SDS011;2243;48.812;9.232;2023-08-21T14:08:03;9.40;;;5.15;;
4460;SDS011;2243;48.812;9.232;2023-08-21T14:10:35;6.32;;;5.05;;
4460;SDS011;2243;48.812;9.232;2023-08-21T14:13:06;5.80;;;5.20;;
4460;SDS011;2243;48.812;9.232;2023-08-21T14:15:38;6.50;;;5.05;;
4460;SDS011;2243;48.812;9.232;2023-08-21T14:18:09;5.97;;;5.30;;
4460;SDS011;2243;48.812;9.232;2023-08-21T14:20:40;6.82;;;5.05;;
4460;SDS011;2243;48.812;9.232;2023-08-21T14:23:11;8.15;;;4.90;;
4460;SDS011;2243;48.812;9.232;2023-08-21T14:25:42;6.72;;;5.50;;
4460;SDS011;2243;48.812;9.232;2023-08-21T14:28:13;7.05;;;4.90;;
4460;SDS011;2243;48.812;9.232;2023-08-21T14:30:44;7.00;;;4.78;;
4460;SDS011;2243;48.812;9.232;2023-08-21T14:33:17;5.40;;;4.80;;
4460;SDS011;2243;48.812;9.232;2023-08-21T14:35:48;4.75;;;4.45;;
4460;SDS011;2243;48.812;9.232;2023-08-21T14:38:19;5.18;;;4.70;;
4460;SDS011;2243;48.812;9.232;2023-08-21T14:40:51;5.15;;;4.75;;
4460;SDS011;2243;48.812;9.232;2023-08-21T14:43:23;5.40;;;4.90;;
4460;SDS011;2243;48.812;9.232;2023-08-21T14:45:54;4.53;;;4.22;;
4460;SDS011;2243;48.812;9.232;2023-08-21T14:48:25;5.28;;;4.80;;
4460;SDS011;2243;48.812;9.232;2023-08-21T14:50:56;7.20;;;5.63;;
4460;SDS011;2243;48.812;9.232;2023-08-21T14:53:28;5.90;;;4.35;;
4460;SDS011;2243;48.812;9.232;2023-08-21T14:55:59;5.10;;;4.80;;
4460;SDS011;2243;48.812;9.232;2023-08-21T14:58:30;5.55;;;5.07;;
4460;SDS011;2243;48.812;9.232;2023-08-21T15:01:01;5.70;;;5.13;;
4460;SDS011;2243;48.812;9.232;2023-08-21T15:03:31;4.72;;;4.30;;
4460;SDS011;2243;48.812;9.232;2023-08-21T15:06:03;7.80;;;4.55;;
4460;SDS011;2243;48.812;9.232;2023-08-21T15:08:34;5.38;;;4.88;;
4460;SDS011;2243;48.812;9.232;2023-08-21T15:11:08;6.63;;;4.70;;
4460;SDS011;2243;48.812;9.232;2023-08-21T15:13:40;6.43;;;4.72;;
4460;SDS011;2243;48.812;9.232;2023-08-21T15:16:11;5.45;;;4.82;;
4460;SDS011;2243;48.812;9.232;2023-08-21T15:18:42;4.57;;;4.28;;
4460;SDS011;2243;48.812;9.232;2023-08-21T15:21:13;4.78;;;4.43;;
4460;SDS011;2243;48.812;9.232;2023-08-21T15:23:44;4.63;;;4.32;;
4460;SDS011;2243;48.812;9.232;2023-08-21T15:26:16;7.75;;;4.45;;
4460;SDS011;2243;48.812;9.232;2023-08-21T15:28:47;4.90;;;4.47;;
4460;SDS011;2243;48.812;9.232;2023-08-21T15:31:22;6.15;;;5.65;;
4460;SDS011;2243;48.812;9.232;2023-08-21T15:33:53;4.78;;;4.43;;
4460;SDS011;2243;48.812;9.232;2023-08-21T15:36:24;7.13;;;5.45;;